sensor_id;sensor_type;location;lat;lon;timestamp;P1;durP1;ratioP1;P2;durP2;ratioP2
84989;SDS011;75307;53.836;10.476;2024-02-14T00:01:33;6.85;;;3.03;;
84989;SDS011;75307;53.836;10.476;2024-02-14T00:03:37;3.55;;;2.78;;
84989;SDS011;75307;53.836;10.476;2024-02-14T00:05:38;5.55;;;2.80;;
84989;SDS011;75307;53.836;10.476;2024-02-14T00:07:41;5.15;;;2.35;;
84989;SDS011;75307;53.836;10.476;2024-02-14T00:09:43;4.50;;;2.47;;
84989;SDS011;75307;53.836;10.476;2024-02-14T00:11:44;6.38;;;2.65;;
84989;SDS011;75307;53.836;10.476;2024-02-14T00:13:47;3.88;;;2.92;;
84989;SDS011;75307;53.836;10.476;2024-02-14T00:15:50;4.15;;;2.95;;
84989;SDS011;75307;53.836;10.476;2024-02-14T00:17:51;8.68;;;3.10;;
84989;SDS011;75307;53.836;10.476;2024-02-14T00:19:53;3.80;;;2.17;;
84989;SDS011;75307;53.836;10.476;2024-02-14T00:21:55;6.05;;;2.35;;
84989;SDS011;75307;53.836;10.476;2024-02-14T00:23:56;5.32;;;2.38;;
84989;SDS011;75307;53.836;10.476;2024-02-14T00:25:58;4.45;;;1.85;;
84989;SDS011;75307;53.836;10.476;2024-02-14T00:28:00;4.03;;;2.28;;
84989;SDS011;75307;53.836;10.476;2024-02-14T00:30:03;3.83;;;2.53;;
84989;SDS011;75307;53.836;10.476;2024-02-14T00:32:06;5.82;;;3.38;;
84989;SDS011;75307;53.836;10.476;2024-02-14T00:34:08;3.65;;;1.95;;
84989;SDS011;75307;53.836;10.476;2024-02-14T00:36:09;6.90;;;3.40;;
84989;SDS011;75307;53.836;10.476;2024-02-14T00:38:11;6.28;;;3.08;;
84989;SDS011;75307;53.836;10.476;2024-02-14T00:40:12;3.90;;;2.58;;
84989;SDS011;75307;53.836;10.476;2024-02-14T00:42:14;3.63;;;2.50;;
84989;SDS011;75307;53.836;10.476;2024-02-14T00:44:15;4.18;;;2.03;;
84989;SDS011;75307;53.836;10.476;2024-02-14T00:46:20;2.65;;;2.15;;
84989;SDS011;75307;53.836;10.476;2024-02-14T00:48:21;6.38;;;2.85;;
84989;SDS011;75307;53.836;10.476;2024-02-14T00:50:22;3.38;;;2.58;;
84989;SDS011;75307;53.836;10.476;2024-02-14T00:52:23;3.72;;;1.77;;
84989;SDS011;75307;53.836;10.476;2024-02-14T00:54:25;6.53;;;2.22;;
84989;SDS011;75307;53.836;10.476;2024-02-14T00:56:26;4.30;;;2.55;;
84989;SDS011;75307;53.836;10.476;2024-02-14T00:58:28;3.33;;;2.47;;
84989;SDS011;75307;53.836;10.476;2024-02-14T01:00:30;3.05;;;1.75;;
84989;SDS011;75307;53.836;10.476;2024-02-14T01:02:33;5.50;;;2.83;;
84989;SDS011;75307;53.836;10.476;2024-02-14T01:04:36;4.35;;;2.05;;
84989;SDS011;75307;53.836;10.476;2024-02-14T01:06:37;3.85;;;2.13;;
84989;SDS011;75307;53.836;10.476;2024-02-14T01:08:39;3.72;;;2.03;;
84989;SDS011;75307;53.836;10.476;2024-02-14T01:10:41;3.72;;;1.80;;
84989;SDS011;75307;53.836;10.476;2024-02-14T01:12:43;4.10;;;2.42;;
84989;SDS011;75307;53.836;10.476;2024-02-14T01:14:45;3.45;;;2.72;;
84989;SDS011;75307;53.836;10.476;2024-02-14T01:16:46;6.25;;;2.40;;
84989;SDS011;75307;53.836;10.476;2024-02-14T01:18:49;6.97;;;3.10;;
84989;SDS011;75307;53.836;10.476;2024-02-14T01:20:50;4.32;;;2.35;;
84989;SDS011;75307;53.836;10.476;2024-02-14T01:22:52;4.10;;;2.67;;
84989;SDS011;75307;53.836;10.476;2024-02-14T01:24:53;4.90;;;2.65;;
84989;SDS011;75307;53.836;10.476;2024-02-14T01:26:55;3.85;;;2.00;;
84989;SDS011;75307;53.836;10.476;2024-02-14T01:28:57;5.65;;;3.08;;
84989;SDS011;75307;53.836;10.476;2024-02-14T01:31:00;3.38;;;2.40;;
84989;SDS011;75307;53.836;10.476;2024-02-14T01:33:02;5.65;;;1.90;;
84989;SDS011;75307;53.836;10.476;2024-02-14T01:35:06;3.65;;;2.25;;
84989;SDS011;75307;53.836;10.476;2024-02-14T01:37:09;5.57;;;2.40;;
84989;SDS011;75307;53.836;10.476;2024-02-14T01:39:11;3.60;;;1.80;;
84989;SDS011;75307;53.836;10.476;2024-02-14T01:41:13;2.60;;;1.52;;
84989;SDS011;75307;53.836;10.476;2024-02-14T01:43:14;3.22;;;1.80;;
84989;SDS011;75307;53.836;10.476;2024-02-14T01:45:16;4.00;;;2.67;;
84989;SDS011;75307;53.836;10.476;2024-02-14T01:47:18;3.53;;;2.25;;
84989;SDS011;75307;53.836;10.476;2024-02-14T01:49:20;4.70;;;1.95;;
84989;SDS011;75307;53.836;10.476;2024-02-14T01:51:23;3.47;;;1.90;;
84989;SDS011;75307;53.836;10.476;2024-02-14T01:53:24;4.55;;;1.60;;
84989;SDS011;75307;53.836;10.476;2024-02-14T01:55:26;6.53;;;2.70;;
84989;SDS011;75307;53.836;10.476;2024-02-14T01:57:28;4.45;;;2.05;;
84989;SDS011;75307;53.836;10.476;2024-02-14T01:59:32;3.85;;;1.80;;
84989;SDS011;75307;53.836;10.476;2024-02-14T02:01:35;4.47;;;1.80;;
84989;SDS011;75307;53.836;10.476;2024-02-14T02:03:36;4.63;;;2.30;;
84989;SDS011;75307;53.836;10.476;2024-02-14T02:05:38;3.15;;;2.55;;
84989;SDS011;75307;53.836;10.476;2024-02-14T02:07:40;4.50;;;2.38;;
84989;SDS011;75307;53.836;10.476;2024-02-14T02:09:43;3.85;;;1.88;;
84989;SDS011;75307;53.836;10.476;2024-02-14T02:11:48;3.25;;;1.92;;
84989;SDS011;75307;53.836;10.476;2024-02-14T02:13:50;4.38;;;2.03;;
84989;SDS011;75307;53.836;10.476;2024-02-14T02:15:52;4.35;;;2.13;;
84989;SDS011;75307;53.836;10.476;2024-02-14T02:17:53;6.25;;;2.08;;
84989;SDS011;75307;53.836;10.476;2024-02-14T02:19:55;2.72;;;1.67;;
84989;SDS011;75307;53.836;10.476;2024-02-14T02:21:58;3.83;;;2.10;;
84989;SDS011;75307;53.836;10.476;2024-02-14T02:24:01;4.15;;;2.63;;
84989;SDS011;75307;53.836;10.476;2024-02-14T02:26:02;5.57;;;2.90;;
84989;SDS011;75307;53.836;10.476;2024-02-14T02:28:04;5.20;;;2.08;;
84989;SDS011;75307;53.836;10.476;2024-02-14T02:30:07;6.03;;;2.88;;
84989;SDS011;75307;53.836;10.476;2024-02-14T02:32:10;3.78;;;2.13;;
84989;SDS011;75307;53.836;10.476;2024-02-14T02:34:12;5.25;;;2.13;;
84989;SDS011;75307;53.836;10.476;2024-02-14T02:36:12;3.42;;;1.98;;
84989;SDS011;75307;53.836;10.476;2024-02-14T02:38:16;3.97;;;2.42;;
84989;SDS011;75307;53.836;10.476;2024-02-14T02:40:18;5.25;;;2.47;;
84989;SDS011;75307;53.836;10.476;2024-02-14T02:42:21;3.65;;;2.10;;
84989;SDS011;75307;53.836;10.476;2024-02-14T02:44:23;6.70;;;2.20;;
84989;SDS011;75307;53.836;10.476;2024-02-14T02:46:24;4.63;;;2.38;;
84989;SDS011;75307;53.836;10.476;2024-02-14T02:48:26;3.95;;;2.53;;
84989;SDS011;75307;53.836;10.476;2024-02-14T02:50:28;4.38;;;2.80;;
84989;SDS011;75307;53.836;10.476;2024-02-14T02:52:30;3.60;;;2.30;;
84989;SDS011;75307;53.836;10.476;2024-02-14T02:54:32;5.07;;;2.33;;
84989;SDS011;75307;53.836;10.476;2024-02-14T02:56:35;4.45;;;2.75;;
84989;SDS011;75307;53.836;10.476;2024-02-14T02:58:37;3.97;;;2.00;;
84989;SDS011;75307;53.836;10.476;2024-02-14T03:00:39;5.40;;;2.65;;
84989;SDS011;75307;53.836;10.476;2024-02-14T03:02:40;4.38;;;2.05;;
84989;SDS011;75307;53.836;10.476;2024-02-14T03:04:44;4.10;;;2.08;;
84989;SDS011;75307;53.836;10.476;2024-02-14T03:06:46;4.72;;;2.50;;
84989;SDS011;75307;53.836;10.476;2024-02-14T03:08:48;5.75;;;2.40;;
84989;SDS011;75307;53.836;10.476;2024-02-14T03:10:52;4.93;;;2.50;;
84989;SDS011;75307;53.836;10.476;2024-02-14T03:12:55;5.10;;;2.65;;
84989;SDS011;75307;53.836;10.476;2024-02-14T03:14:57;6.85;;;2.88;;
84989;SDS011;75307;53.836;10.476;2024-02-14T03:16:59;4.15;;;3.03;;
84989;SDS011;75307;53.836;10.476;2024-02-14T03:19:01;4.70;;;2.30;;
84989;SDS011;75307;53.836;10.476;2024-02-14T03:21:03;4.47;;;2.67;;
84989;SDS011;75307;53.836;10.476;2024-02-14T03:23:06;6.38;;;2.63;;
84989;SDS011;75307;53.836;10.476;2024-02-14T03:25:08;4.57;;;2.03;;
84989;SDS011;75307;53.836;10.476;2024-02-14T03:29:12;4.93;;;2.35;;
84989;SDS011;75307;53.836;10.476;2024-02-14T03:31:14;3.08;;;1.85;;
84989;SDS011;75307;53.836;10.476;2024-02-14T03:33:15;3.45;;;2.15;;
84989;SDS011;75307;53.836;10.476;2024-02-14T03:35:17;4.55;;;2.75;;
84989;SDS011;75307;53.836;10.476;2024-02-14T03:37:19;4.55;;;2.15;;
84989;SDS011;75307;53.836;10.476;2024-02-14T03:39:21;4.22;;;2.33;;
84989;SDS011;75307;53.836;10.476;2024-02-14T03:41:23;4.75;;;3.10;;
84989;SDS011;75307;53.836;10.476;2024-02-14T03:43:24;4.13;;;2.28;;
84989;SDS011;75307;53.836;10.476;2024-02-14T03:45:26;5.38;;;2.50;;
84989;SDS011;75307;53.836;10.476;2024-02-14T03:47:29;5.07;;;2.40;;
84989;SDS011;75307;53.836;10.476;2024-02-14T03:49:32;5.93;;;3.10;;
84989;SDS011;75307;53.836;10.476;2024-02-14T03:51:35;5.05;;;3.33;;
84989;SDS011;75307;53.836;10.476;2024-02-14T03:53:36;4.45;;;3.17;;
84989;SDS011;75307;53.836;10.476;2024-02-14T03:55:38;4.10;;;3.03;;
84989;SDS011;75307;53.836;10.476;2024-02-14T03:57:40;5.75;;;2.55;;
84989;SDS011;75307;53.836;10.476;2024-02-14T03:59:42;4.97;;;3.00;;
84989;SDS011;75307;53.836;10.476;2024-02-14T04:01:45;5.15;;;3.03;;
84989;SDS011;75307;53.836;10.476;2024-02-14T04:03:46;4.18;;;2.30;;
84989;SDS011;75307;53.836;10.476;2024-02-14T04:05:48;4.57;;;3.15;;
84989;SDS011;75307;53.836;10.476;2024-02-14T04:07:50;4.78;;;2.40;;
84989;SDS011;75307;53.836;10.476;2024-02-14T04:09:53;6.00;;;2.90;;
84989;SDS011;75307;53.836;10.476;2024-02-14T04:11:55;5.65;;;2.58;;
84989;SDS011;75307;53.836;10.476;2024-02-14T04:13:56;5.32;;;3.40;;
84989;SDS011;75307;53.836;10.476;2024-02-14T04:15:58;3.88;;;2.05;;
84989;SDS011;75307;53.836;10.476;2024-02-14T04:18:01;8.50;;;3.15;;
84989;SDS011;75307;53.836;10.476;2024-02-14T04:20:04;5.85;;;3.03;;
84989;SDS011;75307;53.836;10.476;2024-02-14T04:22:07;6.60;;;2.90;;
84989;SDS011;75307;53.836;10.476;2024-02-14T04:24:08;5.40;;;2.55;;
84989;SDS011;75307;53.836;10.476;2024-02-14T04:26:10;6.22;;;3.60;;
84989;SDS011;75307;53.836;10.476;2024-02-14T04:28:19;6.57;;;3.10;;
84989;SDS011;75307;53.836;10.476;2024-02-14T04:30:22;4.30;;;2.50;;
84989;SDS011;75307;53.836;10.476;2024-02-14T04:32:23;5.68;;;3.63;;
84989;SDS011;75307;53.836;10.476;2024-02-14T04:34:27;5.65;;;2.60;;
84989;SDS011;75307;53.836;10.476;2024-02-14T04:36:28;6.55;;;3.38;;
84989;SDS011;75307;53.836;10.476;2024-02-14T04:38:31;5.18;;;3.20;;
84989;SDS011;75307;53.836;10.476;2024-02-14T04:40:32;5.00;;;2.55;;
84989;SDS011;75307;53.836;10.476;2024-02-14T04:42:34;5.13;;;3.63;;
84989;SDS011;75307;53.836;10.476;2024-02-14T04:44:36;6.78;;;3.63;;
84989;SDS011;75307;53.836;10.476;2024-02-14T04:46:37;5.15;;;3.13;;
84989;SDS011;75307;53.836;10.476;2024-02-14T04:48:43;6.75;;;3.90;;
84989;SDS011;75307;53.836;10.476;2024-02-14T04:50:46;7.25;;;3.67;;
84989;SDS011;75307;53.836;10.476;2024-02-14T04:52:49;5.10;;;3.20;;
84989;SDS011;75307;53.836;10.476;2024-02-14T04:54:49;7.45;;;3.58;;
84989;SDS011;75307;53.836;10.476;2024-02-14T04:56:51;7.55;;;3.17;;
84989;SDS011;75307;53.836;10.476;2024-02-14T04:58:53;5.85;;;3.65;;
84989;SDS011;75307;53.836;10.476;2024-02-14T05:00:55;5.22;;;3.97;;
84989;SDS011;75307;53.836;10.476;2024-02-14T05:02:56;9.30;;;4.45;;
84989;SDS011;75307;53.836;10.476;2024-02-14T05:04:58;7.50;;;3.15;;
84989;SDS011;75307;53.836;10.476;2024-02-14T05:07:01;4.45;;;3.28;;
84989;SDS011;75307;53.836;10.476;2024-02-14T05:09:03;10.43;;;4.28;;
84989;SDS011;75307;53.836;10.476;2024-02-14T05:11:04;34.28;;;17.33;;
84989;SDS011;75307;53.836;10.476;2024-02-14T05:13:05;33.60;;;18.15;;
84989;SDS011;75307;53.836;10.476;2024-02-14T05:15:07;44.08;;;22.73;;
84989;SDS011;75307;53.836;10.476;2024-02-14T05:17:09;14.38;;;9.40;;
84989;SDS011;75307;53.836;10.476;2024-02-14T05:19:11;11.00;;;9.43;;
84989;SDS011;75307;53.836;10.476;2024-02-14T05:21:13;9.98;;;5.97;;
84989;SDS011;75307;53.836;10.476;2024-02-14T05:23:16;10.35;;;6.22;;
84989;SDS011;75307;53.836;10.476;2024-02-14T05:25:18;13.77;;;12.32;;
84989;SDS011;75307;53.836;10.476;2024-02-14T05:27:20;8.10;;;6.57;;
84989;SDS011;75307;53.836;10.476;2024-02-14T05:29:22;8.40;;;5.00;;
84989;SDS011;75307;53.836;10.476;2024-02-14T05:31:24;12.75;;;6.15;;
84989;SDS011;75307;53.836;10.476;2024-02-14T05:33:25;9.90;;;4.72;;
84989;SDS011;75307;53.836;10.476;2024-02-14T05:35:27;8.75;;;4.90;;
84989;SDS011;75307;53.836;10.476;2024-02-14T05:37:28;9.65;;;5.60;;
84989;SDS011;75307;53.836;10.476;2024-02-14T05:39:32;6.57;;;3.65;;
84989;SDS011;75307;53.836;10.476;2024-02-14T05:41:34;5.53;;;3.38;;
84989;SDS011;75307;53.836;10.476;2024-02-14T05:43:36;8.30;;;3.10;;
84989;SDS011;75307;53.836;10.476;2024-02-14T05:45:38;8.00;;;4.72;;
84989;SDS011;75307;53.836;10.476;2024-02-14T05:47:41;23.25;;;13.00;;
84989;SDS011;75307;53.836;10.476;2024-02-14T05:49:44;33.78;;;17.20;;
84989;SDS011;75307;53.836;10.476;2024-02-14T05:51:44;23.52;;;12.25;;
84989;SDS011;75307;53.836;10.476;2024-02-14T05:53:46;9.35;;;5.30;;
84989;SDS011;75307;53.836;10.476;2024-02-14T05:55:49;10.48;;;6.93;;
84989;SDS011;75307;53.836;10.476;2024-02-14T05:57:51;13.48;;;8.95;;
84989;SDS011;75307;53.836;10.476;2024-02-14T05:59:53;13.98;;;6.10;;
84989;SDS011;75307;53.836;10.476;2024-02-14T06:01:55;17.17;;;11.57;;
84989;SDS011;75307;53.836;10.476;2024-02-14T06:03:56;33.70;;;18.92;;
84989;SDS011;75307;53.836;10.476;2024-02-14T06:05:57;22.88;;;11.13;;
84989;SDS011;75307;53.836;10.476;2024-02-14T06:07:59;12.00;;;6.80;;
84989;SDS011;75307;53.836;10.476;2024-02-14T06:10:03;17.23;;;12.63;;
84989;SDS011;75307;53.836;10.476;2024-02-14T06:12:08;13.75;;;9.73;;
84989;SDS011;75307;53.836;10.476;2024-02-14T06:14:09;9.75;;;6.18;;
84989;SDS011;75307;53.836;10.476;2024-02-14T06:16:11;8.95;;;5.45;;
84989;SDS011;75307;53.836;10.476;2024-02-14T06:18:13;16.55;;;10.02;;
84989;SDS011;75307;53.836;10.476;2024-02-14T06:20:14;11.23;;;5.95;;
84989;SDS011;75307;53.836;10.476;2024-02-14T06:22:16;10.40;;;5.18;;
84989;SDS011;75307;53.836;10.476;2024-02-14T06:24:16;12.13;;;6.90;;
84989;SDS011;75307;53.836;10.476;2024-02-14T06:26:19;12.75;;;6.53;;
84989;SDS011;75307;53.836;10.476;2024-02-14T06:28:22;10.98;;;7.20;;
84989;SDS011;75307;53.836;10.476;2024-02-14T06:30:24;7.80;;;4.43;;
84989;SDS011;75307;53.836;10.476;2024-02-14T06:32:26;9.20;;;4.95;;
84989;SDS011;75307;53.836;10.476;2024-02-14T06:34:28;14.88;;;7.55;;
84989;SDS011;75307;53.836;10.476;2024-02-14T06:36:29;14.32;;;7.43;;
84989;SDS011;75307;53.836;10.476;2024-02-14T06:38:31;8.85;;;5.07;;
84989;SDS011;75307;53.836;10.476;2024-02-14T06:40:32;10.15;;;4.90;;
84989;SDS011;75307;53.836;10.476;2024-02-14T06:42:34;8.27;;;5.20;;
84989;SDS011;75307;53.836;10.476;2024-02-14T06:44:37;9.55;;;5.32;;
84989;SDS011;75307;53.836;10.476;2024-02-14T06:46:39;8.80;;;5.20;;
84989;SDS011;75307;53.836;10.476;2024-02-14T06:48:41;9.23;;;4.22;;
84989;SDS011;75307;53.836;10.476;2024-02-14T06:50:43;9.57;;;4.78;;
84989;SDS011;75307;53.836;10.476;2024-02-14T06:52:45;6.43;;;4.22;;
84989;SDS011;75307;53.836;10.476;2024-02-14T06:54:47;9.27;;;4.63;;
84989;SDS011;75307;53.836;10.476;2024-02-14T06:56:48;8.32;;;4.88;;
84989;SDS011;75307;53.836;10.476;2024-02-14T06:58:50;7.70;;;4.55;;
84989;SDS011;75307;53.836;10.476;2024-02-14T07:00:55;8.40;;;4.18;;
84989;SDS011;75307;53.836;10.476;2024-02-14T07:02:57;6.97;;;5.03;;
84989;SDS011;75307;53.836;10.476;2024-02-14T07:04:58;9.63;;;4.40;;
84989;SDS011;75307;53.836;10.476;2024-02-14T07:06:59;7.78;;;3.92;;
84989;SDS011;75307;53.836;10.476;2024-02-14T07:09:01;7.22;;;3.67;;
84989;SDS011;75307;53.836;10.476;2024-02-14T07:11:03;9.18;;;3.90;;
84989;SDS011;75307;53.836;10.476;2024-02-14T07:13:05;7.72;;;5.03;;
84989;SDS011;75307;53.836;10.476;2024-02-14T07:15:07;7.90;;;3.95;;
84989;SDS011;75307;53.836;10.476;2024-02-14T07:17:10;6.85;;;4.70;;
84989;SDS011;75307;53.836;10.476;2024-02-14T07:19:12;8.90;;;4.75;;
84989;SDS011;75307;53.836;10.476;2024-02-14T07:21:14;9.85;;;4.85;;
84989;SDS011;75307;53.836;10.476;2024-02-14T07:23:18;9.45;;;4.00;;
84989;SDS011;75307;53.836;10.476;2024-02-14T07:25:20;7.30;;;3.78;;
84989;SDS011;75307;53.836;10.476;2024-02-14T07:27:21;7.53;;;4.05;;
84989;SDS011;75307;53.836;10.476;2024-02-14T07:29:24;10.68;;;4.10;;
84989;SDS011;75307;53.836;10.476;2024-02-14T07:31:28;7.97;;;4.32;;
84989;SDS011;75307;53.836;10.476;2024-02-14T07:33:34;9.90;;;4.20;;
84989;SDS011;75307;53.836;10.476;2024-02-14T07:35:36;7.07;;;4.28;;
84989;SDS011;75307;53.836;10.476;2024-02-14T07:37:37;8.88;;;4.35;;
84989;SDS011;75307;53.836;10.476;2024-02-14T07:39:39;9.02;;;5.00;;
84989;SDS011;75307;53.836;10.476;2024-02-14T07:41:41;8.45;;;4.50;;
84989;SDS011;75307;53.836;10.476;2024-02-14T07:43:43;6.22;;;3.38;;
84989;SDS011;75307;53.836;10.476;2024-02-14T07:45:45;6.50;;;3.40;;
84989;SDS011;75307;53.836;10.476;2024-02-14T07:47:46;8.43;;;4.20;;
84989;SDS011;75307;53.836;10.476;2024-02-14T07:49:51;7.15;;;5.25;;
84989;SDS011;75307;53.836;10.476;2024-02-14T07:51:53;8.32;;;4.45;;
84989;SDS011;75307;53.836;10.476;2024-02-14T07:53:55;7.03;;;4.88;;
84989;SDS011;75307;53.836;10.476;2024-02-14T07:55:57;9.43;;;4.18;;
84989;SDS011;75307;53.836;10.476;2024-02-14T07:57:59;7.82;;;4.68;;
84989;SDS011;75307;53.836;10.476;2024-02-14T08:00:01;7.57;;;4.75;;
84989;SDS011;75307;53.836;10.476;2024-02-14T08:02:03;7.82;;;3.75;;
84989;SDS011;75307;53.836;10.476;2024-02-14T08:04:05;6.55;;;3.40;;
84989;SDS011;75307;53.836;10.476;2024-02-14T08:06:08;6.47;;;4.03;;
84989;SDS011;75307;53.836;10.476;2024-02-14T08:08:10;7.60;;;3.85;;
84989;SDS011;75307;53.836;10.476;2024-02-14T08:10:12;7.43;;;3.80;;
84989;SDS011;75307;53.836;10.476;2024-02-14T08:12:14;8.38;;;4.50;;
84989;SDS011;75307;53.836;10.476;2024-02-14T08:14:16;7.05;;;3.97;;
84989;SDS011;75307;53.836;10.476;2024-02-14T08:16:17;7.97;;;4.38;;
84989;SDS011;75307;53.836;10.476;2024-02-14T08:18:19;5.97;;;4.15;;
84989;SDS011;75307;53.836;10.476;2024-02-14T08:20:21;8.70;;;4.60;;
84989;SDS011;75307;53.836;10.476;2024-02-14T08:22:24;6.47;;;3.25;;
84989;SDS011;75307;53.836;10.476;2024-02-14T08:24:27;8.98;;;4.60;;
84989;SDS011;75307;53.836;10.476;2024-02-14T08:26:28;7.53;;;4.45;;
84989;SDS011;75307;53.836;10.476;2024-02-14T08:28:31;6.72;;;3.67;;
84989;SDS011;75307;53.836;10.476;2024-02-14T08:30:32;5.95;;;4.15;;
84989;SDS011;75307;53.836;10.476;2024-02-14T08:32:34;8.27;;;3.60;;
84989;SDS011;75307;53.836;10.476;2024-02-14T08:34:36;6.93;;;3.70;;
84989;SDS011;75307;53.836;10.476;2024-02-14T08:36:38;8.68;;;3.67;;
84989;SDS011;75307;53.836;10.476;2024-02-14T08:38:42;7.28;;;3.60;;
84989;SDS011;75307;53.836;10.476;2024-02-14T08:40:44;7.75;;;4.28;;
84989;SDS011;75307;53.836;10.476;2024-02-14T08:42:46;6.80;;;4.85;;
84989;SDS011;75307;53.836;10.476;2024-02-14T08:44:47;7.88;;;3.85;;
84989;SDS011;75307;53.836;10.476;2024-02-14T08:46:50;6.32;;;4.18;;
84989;SDS011;75307;53.836;10.476;2024-02-14T08:48:52;7.63;;;3.55;;
84989;SDS011;75307;53.836;10.476;2024-02-14T08:50:54;6.95;;;4.22;;
84989;SDS011;75307;53.836;10.476;2024-02-14T08:52:56;8.10;;;3.95;;
84989;SDS011;75307;53.836;10.476;2024-02-14T08:54:59;5.45;;;3.08;;
84989;SDS011;75307;53.836;10.476;2024-02-14T08:57:01;6.78;;;3.92;;
84989;SDS011;75307;53.836;10.476;2024-02-14T08:59:03;8.45;;;4.00;;
84989;SDS011;75307;53.836;10.476;2024-02-14T09:01:04;5.65;;;3.42;;
84989;SDS011;75307;53.836;10.476;2024-02-14T09:03:07;7.70;;;3.65;;
84989;SDS011;75307;53.836;10.476;2024-02-14T09:05:09;6.90;;;3.72;;
84989;SDS011;75307;53.836;10.476;2024-02-14T09:07:10;7.32;;;4.28;;
84989;SDS011;75307;53.836;10.476;2024-02-14T09:09:13;7.05;;;4.10;;
84989;SDS011;75307;53.836;10.476;2024-02-14T09:11:17;6.90;;;3.53;;
84989;SDS011;75307;53.836;10.476;2024-02-14T09:13:19;6.63;;;3.22;;
84989;SDS011;75307;53.836;10.476;2024-02-14T09:15:20;7.45;;;3.20;;
84989;SDS011;75307;53.836;10.476;2024-02-14T09:17:22;9.60;;;4.22;;
84989;SDS011;75307;53.836;10.476;2024-02-14T09:19:22;5.65;;;3.60;;
84989;SDS011;75307;53.836;10.476;2024-02-14T09:21:25;6.95;;;4.30;;
84989;SDS011;75307;53.836;10.476;2024-02-14T09:23:28;6.55;;;3.97;;
84989;SDS011;75307;53.836;10.476;2024-02-14T09:25:30;6.65;;;3.25;;
84989;SDS011;75307;53.836;10.476;2024-02-14T09:27:33;6.43;;;3.50;;
84989;SDS011;75307;53.836;10.476;2024-02-14T09:29:35;6.63;;;3.83;;
84989;SDS011;75307;53.836;10.476;2024-02-14T09:31:38;8.13;;;3.60;;
84989;SDS011;75307;53.836;10.476;2024-02-14T09:33:40;5.53;;;3.35;;
84989;SDS011;75307;53.836;10.476;2024-02-14T09:35:41;6.47;;;3.28;;
84989;SDS011;75307;53.836;10.476;2024-02-14T09:37:44;6.00;;;3.10;;
84989;SDS011;75307;53.836;10.476;2024-02-14T09:39:46;6.70;;;4.25;;
84989;SDS011;75307;53.836;10.476;2024-02-14T09:41:49;8.10;;;3.95;;
84989;SDS011;75307;53.836;10.476;2024-02-14T09:43:55;6.90;;;3.60;;
84989;SDS011;75307;53.836;10.476;2024-02-14T09:45:57;6.40;;;3.55;;
84989;SDS011;75307;53.836;10.476;2024-02-14T09:47:59;7.30;;;3.40;;
84989;SDS011;75307;53.836;10.476;2024-02-14T09:50:01;8.15;;;4.10;;
84989;SDS011;75307;53.836;10.476;2024-02-14T09:52:05;5.65;;;2.88;;
84989;SDS011;75307;53.836;10.476;2024-02-14T09:54:10;6.10;;;3.88;;
84989;SDS011;75307;53.836;10.476;2024-02-14T09:56:12;6.18;;;3.80;;
84989;SDS011;75307;53.836;10.476;2024-02-14T09:58:17;5.88;;;3.33;;
84989;SDS011;75307;53.836;10.476;2024-02-14T10:00:19;9.02;;;3.00;;
84989;SDS011;75307;53.836;10.476;2024-02-14T10:02:22;7.47;;;3.85;;
84989;SDS011;75307;53.836;10.476;2024-02-14T10:10:34;5.97;;;2.90;;
84989;SDS011;75307;53.836;10.476;2024-02-14T10:12:36;7.88;;;3.97;;
84989;SDS011;75307;53.836;10.476;2024-02-14T10:14:38;6.90;;;3.50;;
84989;SDS011;75307;53.836;10.476;2024-02-14T10:16:42;6.68;;;3.90;;
84989;SDS011;75307;53.836;10.476;2024-02-14T10:18:45;6.57;;;3.50;;
84989;SDS011;75307;53.836;10.476;2024-02-14T10:20:54;7.53;;;4.18;;
84989;SDS011;75307;53.836;10.476;2024-02-14T10:23:00;6.07;;;3.30;;
84989;SDS011;75307;53.836;10.476;2024-02-14T10:25:03;7.43;;;3.65;;
84989;SDS011;75307;53.836;10.476;2024-02-14T10:27:11;5.53;;;3.35;;
84989;SDS011;75307;53.836;10.476;2024-02-14T10:29:12;7.13;;;3.60;;
84989;SDS011;75307;53.836;10.476;2024-02-14T10:31:14;7.72;;;4.05;;
84989;SDS011;75307;53.836;10.476;2024-02-14T10:33:17;6.85;;;3.40;;
84989;SDS011;75307;53.836;10.476;2024-02-14T10:35:20;5.78;;;3.13;;
84989;SDS011;75307;53.836;10.476;2024-02-14T10:37:23;6.97;;;3.15;;
84989;SDS011;75307;53.836;10.476;2024-02-14T10:39:26;6.35;;;3.65;;
84989;SDS011;75307;53.836;10.476;2024-02-14T10:41:27;6.63;;;3.75;;
84989;SDS011;75307;53.836;10.476;2024-02-14T10:45:37;6.45;;;3.22;;
84989;SDS011;75307;53.836;10.476;2024-02-14T10:47:39;6.70;;;4.00;;
84989;SDS011;75307;53.836;10.476;2024-02-14T10:49:45;5.07;;;3.00;;
84989;SDS011;75307;53.836;10.476;2024-02-14T10:51:48;7.35;;;3.88;;
84989;SDS011;75307;53.836;10.476;2024-02-14T10:53:53;7.55;;;3.35;;
84989;SDS011;75307;53.836;10.476;2024-02-14T10:55:59;6.53;;;3.20;;
84989;SDS011;75307;53.836;10.476;2024-02-14T10:58:03;9.77;;;3.08;;
84989;SDS011;75307;53.836;10.476;2024-02-14T11:00:06;6.93;;;3.50;;
84989;SDS011;75307;53.836;10.476;2024-02-14T11:02:10;6.55;;;3.83;;
84989;SDS011;75307;53.836;10.476;2024-02-14T11:04:13;5.82;;;2.95;;
84989;SDS011;75307;53.836;10.476;2024-02-14T11:06:18;6.95;;;3.25;;
84989;SDS011;75307;53.836;10.476;2024-02-14T11:08:19;6.05;;;3.00;;
84989;SDS011;75307;53.836;10.476;2024-02-14T11:10:21;6.10;;;3.25;;
84989;SDS011;75307;53.836;10.476;2024-02-14T11:12:23;6.65;;;3.80;;
84989;SDS011;75307;53.836;10.476;2024-02-14T11:14:25;6.22;;;3.50;;
84989;SDS011;75307;53.836;10.476;2024-02-14T11:16:32;7.38;;;4.07;;
84989;SDS011;75307;53.836;10.476;2024-02-14T11:18:36;6.53;;;3.40;;
84989;SDS011;75307;53.836;10.476;2024-02-14T11:20:38;7.18;;;4.00;;
84989;SDS011;75307;53.836;10.476;2024-02-14T11:22:49;6.97;;;4.00;;
84989;SDS011;75307;53.836;10.476;2024-02-14T11:24:53;6.30;;;3.20;;
84989;SDS011;75307;53.836;10.476;2024-02-14T11:26:55;6.63;;;3.42;;
84989;SDS011;75307;53.836;10.476;2024-02-14T11:29:00;6.30;;;3.97;;
84989;SDS011;75307;53.836;10.476;2024-02-14T11:31:02;7.65;;;4.25;;
84989;SDS011;75307;53.836;10.476;2024-02-14T11:33:10;8.02;;;4.47;;
84989;SDS011;75307;53.836;10.476;2024-02-14T11:35:14;6.05;;;3.53;;
84989;SDS011;75307;53.836;10.476;2024-02-14T11:39:22;8.48;;;3.50;;
84989;SDS011;75307;53.836;10.476;2024-02-14T11:41:23;7.97;;;4.13;;
84989;SDS011;75307;53.836;10.476;2024-02-14T11:43:25;9.65;;;4.63;;
84989;SDS011;75307;53.836;10.476;2024-02-14T11:45:27;7.13;;;3.90;;
84989;SDS011;75307;53.836;10.476;2024-02-14T11:47:29;6.60;;;4.38;;
84989;SDS011;75307;53.836;10.476;2024-02-14T11:49:31;6.75;;;3.90;;
84989;SDS011;75307;53.836;10.476;2024-02-14T11:51:33;6.43;;;3.25;;
84989;SDS011;75307;53.836;10.476;2024-02-14T11:53:35;8.32;;;3.58;;
84989;SDS011;75307;53.836;10.476;2024-02-14T11:55:39;7.78;;;4.20;;
84989;SDS011;75307;53.836;10.476;2024-02-14T11:57:42;11.15;;;5.18;;
84989;SDS011;75307;53.836;10.476;2024-02-14T11:59:43;6.05;;;3.22;;
84989;SDS011;75307;53.836;10.476;2024-02-14T12:01:46;7.88;;;4.25;;
84989;SDS011;75307;53.836;10.476;2024-02-14T12:03:51;7.28;;;3.92;;
84989;SDS011;75307;53.836;10.476;2024-02-14T12:05:53;7.63;;;3.25;;
84989;SDS011;75307;53.836;10.476;2024-02-14T12:07:56;6.30;;;3.50;;
84989;SDS011;75307;53.836;10.476;2024-02-14T12:09:58;7.25;;;3.80;;
84989;SDS011;75307;53.836;10.476;2024-02-14T12:12:02;6.60;;;3.80;;
84989;SDS011;75307;53.836;10.476;2024-02-14T12:14:05;7.05;;;3.78;;
84989;SDS011;75307;53.836;10.476;2024-02-14T12:16:08;6.13;;;3.33;;
84989;SDS011;75307;53.836;10.476;2024-02-14T12:18:09;6.45;;;3.78;;